Time;durP1;ratioP1;P1;durP2;ratioP2;P2;SDS_P1;SDS_P2;PMS_P1;PMS_P2;Temp;Humidity;BMP_temperature;BMP_pressure;BME280_temperature;BME280_humidity;BME280_pressure;Samples;Min_cycle;Max_cycle;Signal;HPM_P1;HPM_P2
2021/09/09 00:01:16;;;;;;;;;22.25;22.25;;;;;26.42;57.43;100553.47;5056751;28;45490;-53
2021/09/09 00:03:42;;;;;;;;;20.75;20.75;;;;;26.42;57.60;100545.50;5056743;28;45444;-51
2021/09/09 00:06:07;;;;;;;;;21.25;21.00;;;;;26.42;57.60;100556.13;5057013;28;45649;-51
2021/09/09 00:08:32;;;;;;;;;22.50;22.00;;;;;26.41;57.73;100559.75;5057095;28;45547;-52
2021/09/09 00:10:58;;;;;;;;;19.50;18.50;;;;;26.41;57.48;100563.25;5057037;28;46563;-51
2021/09/09 00:13:23;;;;;;;;;20.75;20.25;;;;;26.39;57.73;100559.91;5056886;28;45335;-53
2021/09/09 00:15:48;;;;;;;;;21.50;17.75;;;;;26.38;57.86;100551.06;5056773;28;45417;-54
2021/09/09 00:18:14;;;;;;;;;21.75;20.25;;;;;26.37;58.04;100554.72;5057074;28;45420;-51
2021/09/09 00:20:41;;;;;;;;;23.50;20.75;;;;;26.38;57.75;100550.25;5056390;28;45242;-52
2021/09/09 00:23:07;;;;;;;;;23.00;21.50;;;;;26.37;58.18;100548.56;5056618;28;45285;-55
2021/09/09 00:25:32;;;;;;;;;20.25;19.25;;;;;26.38;57.60;100547.59;5056676;28;45417;-58
2021/09/09 00:27:57;;;;;;;;;22.00;20.50;;;;;26.37;57.88;100537.94;5056946;28;45431;-52
2021/09/09 00:30:23;;;;;;;;;21.50;20.00;;;;;26.37;57.68;100532.63;5056433;28;46437;-55
2021/09/09 00:32:49;;;;;;;;;21.50;19.75;;;;;26.36;57.96;100518.47;5056397;28;45284;-53
2021/09/09 00:35:14;;;;;;;;;23.50;20.50;;;;;26.36;57.79;100523.78;5056431;28;45304;-54
2021/09/09 00:37:40;;;;;;;;;21.00;21.00;;;;;26.38;57.67;100521.03;5056630;28;45527;-52
2021/09/09 00:40:06;;;;;;;;;24.00;21.00;;;;;26.38;57.41;100526.34;5056250;28;46421;-50
2021/09/09 00:42:32;;;;;;;;;22.25;20.75;;;;;26.37;57.49;100522.00;5056282;28;45463;-49
2021/09/09 00:44:57;;;;;;;;;19.00;19.00;;;;;26.37;57.63;100528.13;5056778;28;45403;-55
2021/09/09 00:47:22;;;;;;;;;19.75;19.75;;;;;26.36;57.60;100513.16;5038453;28;45243;-54
2021/09/09 00:49:48;;;;;;;;;17.25;17.25;;;;;26.37;57.40;100516.69;5056215;28;46644;-54
2021/09/09 00:52:15;;;;;;;;;18.50;18.50;;;;;26.36;57.63;100515.00;5056260;28;45245;-49
2021/09/09 00:54:46;;;;;;;;;20.50;19.00;;;;;26.36;58.00;100521.13;5056241;28;45394;-56
2021/09/09 00:57:15;;;;;;;;;17.25;16.75;;;;;26.36;57.28;100522.97;5056569;28;45413;-51
2021/09/09 00:59:40;;;;;;;;;18.75;18.75;;;;;26.35;57.88;100523.94;5055717;28;45706;-55
2021/09/09 01:02:06;;;;;;;;;22.75;20.75;;;;;26.34;57.63;100527.56;5056074;28;45450;-53
2021/09/09 01:04:32;;;;;;;;;20.50;18.00;;;;;26.34;57.94;100539.06;5056323;28;45302;-52
2021/09/09 01:06:59;;;;;;;;;17.25;17.25;;;;;26.32;57.83;100530.34;5056538;28;45309;-52
2021/09/09 01:09:24;;;;;;;;;19.50;18.50;;;;;26.31;58.12;100541.09;5055845;28;46485;-52
2021/09/09 01:11:50;;;;;;;;;19.25;16.50;;;;;26.30;57.75;100542.06;5055892;28;45356;-52
2021/09/09 01:14:17;;;;;;;;;18.25;16.50;;;;;26.27;57.71;100542.34;5055879;28;45426;-55
2021/09/09 01:16:45;;;;;;;;;23.25;21.00;;;;;26.24;57.93;100544.28;5056170;28;45159;-49
2021/09/09 01:19:11;;;;;;;;;19.25;17.75;;;;;26.22;58.30;100540.91;5055512;28;48143;-54
2021/09/09 01:21:37;;;;;;;;;20.75;17.25;;;;;26.23;57.78;100544.44;5055801;28;45303;-52
2021/09/09 01:24:13;;;;;;;;;20.25;18.75;;;;;26.23;57.92;100541.78;5055990;28;45436;-55
2021/09/09 01:26:52;;;;;;;;;18.50;17.00;;;;;26.21;58.27;100541.88;5056031;28;45486;-51
2021/09/09 01:29:19;;;;;;;;;18.75;18.75;;;;;26.21;57.76;100533.91;5054290;28;47965;-51
2021/09/09 01:31:45;;;;;;;;;17.75;17.50;;;;;26.22;57.54;100530.28;5037773;28;46063;-46
2021/09/09 01:34:11;;;;;;;;;16.75;15.00;;;;;26.26;57.42;100535.34;5037890;28;45335;-46
2021/09/09 01:36:37;;;;;;;;;16.50;16.50;;;;;26.26;57.83;100538.00;5056060;28;45566;-47
2021/09/09 01:39:02;;;;;;;;;18.25;16.50;;;;;26.24;57.57;100544.28;5055726;28;45418;-49
2021/09/09 01:41:27;;;;;;;;;15.25;15.00;;;;;26.24;57.62;100549.59;5055686;28;45352;-49
2021/09/09 01:43:53;;;;;;;;;18.50;17.25;;;;;26.23;58.05;100545.25;5055843;28;45335;-49
2021/09/09 01:46:18;;;;;;;;;19.25;17.50;;;;;26.24;58.15;100549.59;5037868;28;45310;-46
2021/09/09 01:48:43;;;;;;;;;14.75;14.75;;;;;26.23;58.08;100553.22;5055486;28;46439;-46
2021/09/09 01:51:09;;;;;;;;;19.50;17.25;;;;;26.25;57.63;100558.41;5056837;28;45324;-47
2021/09/09 01:53:34;;;;;;;;;19.75;17.25;;;;;26.24;57.95;100557.56;5059107;28;45424;-46
2021/09/09 01:55:59;;;;;;;;;17.50;17.50;;;;;26.23;57.96;100553.22;5059561;28;45308;-50
2021/09/09 01:58:25;;;;;;;;;18.50;18.50;;;;;26.24;57.94;100568.19;5058730;28;46040;-50
2021/09/09 02:00:50;;;;;;;;;16.00;16.00;;;;;26.24;58.09;100559.38;5058571;28;45380;-48
2021/09/09 02:03:15;;;;;;;;;19.75;19.75;;;;;26.23;57.79;100563.84;5058919;28;45294;-48
2021/09/09 02:05:41;;;;;;;;;20.00;18.00;;;;;26.24;57.98;100554.06;5059014;28;45340;-47
2021/09/09 02:08:06;;;;;;;;;20.00;17.50;;;;;26.24;57.82;100554.91;5058686;28;45570;-48
2021/09/09 02:10:31;;;;;;;;;19.75;16.25;;;;;26.22;57.77;100548.88;5058942;28;45438;-50
2021/09/09 02:12:58;;;;;;;;;19.50;18.50;;;;;26.22;57.77;100556.84;5058862;28;45349;-48
2021/09/09 02:15:24;;;;;;;;;19.25;19.25;;;;;26.22;57.67;100558.69;5059127;28;45246;-48
2021/09/09 02:17:49;;;;;;;;;19.00;18.00;;;;;26.22;58.05;100562.16;5058529;28;45275;-49
2021/09/09 02:20:15;;;;;;;;;21.25;17.75;;;;;26.21;58.30;100564.97;5058634;28;45527;-51
2021/09/09 02:22:40;;;;;;;;;19.00;17.75;;;;;26.20;58.30;100564.09;5058811;28;45286;-47
2021/09/09 02:25:06;;;;;;;;;19.00;19.00;;;;;26.18;57.64;100555.41;5058806;28;45324;-49
2021/09/09 02:27:31;;;;;;;;;19.00;18.00;;;;;26.18;57.87;100559.91;5058645;28;45385;-49
2021/09/09 02:29:56;;;;;;;;;20.75;19.50;;;;;26.16;57.96;100562.69;5058404;28;45368;-48
2021/09/09 02:32:22;;;;;;;;;22.00;20.50;;;;;26.15;58.32;100566.31;5058512;28;45436;-47
2021/09/09 02:34:47;;;;;;;;;20.25;20.00;;;;;26.16;58.01;100562.69;5058693;28;45604;-47
2021/09/09 02:37:13;;;;;;;;;19.50;18.75;;;;;26.15;58.07;100549.53;5058183;28;46093;-51
2021/09/09 02:39:42;;;;;;;;;21.75;20.00;;;;;26.13;57.99;100552.31;5058128;28;45379;-47
2021/09/09 02:42:08;;;;;;;;;23.50;23.25;;;;;26.13;57.96;100557.63;5058452;28;45391;-49
2021/09/09 02:44:33;;;;;;;;;21.50;19.25;;;;;26.13;58.08;100562.94;5058839;28;45496;-52
2021/09/09 02:46:58;;;;;;;;;18.75;18.75;;;;;26.13;57.85;100560.28;5058103;28;45339;-48
2021/09/09 02:49:24;;;;;;;;;23.75;21.00;;;;;26.13;58.38;100559.47;5058152;28;45228;-48
2021/09/09 02:51:49;;;;;;;;;20.00;20.00;;;;;26.13;57.85;100562.13;5058126;28;45202;-48
2021/09/09 02:54:14;;;;;;;;;20.00;19.25;;;;;26.13;57.84;100560.28;5058259;28;45486;-50
2021/09/09 02:56:40;;;;;;;;;22.50;19.75;;;;;26.13;58.00;100562.13;5057989;28;45576;-49
2021/09/09 02:59:05;;;;;;;;;24.75;22.25;;;;;26.12;58.15;100566.56;5058023;28;45396;-48
2021/09/09 03:01:30;;;;;;;;;22.50;20.25;;;;;26.15;58.50;100570.78;5057902;28;45316;-47
2021/09/09 03:03:56;;;;;;;;;21.25;20.50;;;;;26.13;57.93;100557.63;5057213;28;45555;-49
2021/09/09 03:06:21;;;;;;;;;23.00;22.00;;;;;26.14;57.65;100558.47;5057576;28;45483;-49
2021/09/09 03:08:46;;;;;;;;;23.25;21.75;;;;;26.13;58.10;100552.31;5057816;28;45277;-50
2021/09/09 03:11:12;;;;;;;;;22.25;21.50;;;;;26.13;57.88;100549.66;5057875;28;45317;-49
2021/09/09 03:13:37;;;;;;;;;22.00;20.25;;;;;26.12;58.18;100545.31;5058455;28;45683;-50
2021/09/09 03:16:03;;;;;;;;;26.00;23.00;;;;;26.11;58.41;100556.09;5057653;28;45479;-48
2021/09/09 03:18:28;;;;;;;;;21.75;20.75;;;;;26.08;58.42;100554.47;5057543;28;45430;-46
2021/09/09 03:20:53;;;;;;;;;22.75;20.50;;;;;26.06;58.16;100551.13;5057683;28;45483;-50
2021/09/09 03:23:19;;;;;;;;;21.50;21.00;;;;;26.07;58.27;100552.81;5057875;28;45391;-47
2021/09/09 03:25:45;;;;;;;;;26.50;23.00;;;;;26.03;57.78;100546.91;5057472;28;46470;-48
2021/09/09 03:28:10;;;;;;;;;18.25;17.75;;;;;26.05;58.46;100546.78;5057431;28;45411;-47
2021/09/09 03:30:36;;;;;;;;;20.50;20.50;;;;;26.06;57.76;100540.50;5057971;28;45403;-49
2021/09/09 03:33:01;;;;;;;;;23.00;20.00;;;;;26.05;58.22;100546.78;5056461;28;45558;-49
2021/09/09 03:35:26;;;;;;;;;20.50;20.50;;;;;26.06;58.33;100532.53;5057349;28;46375;-49
2021/09/09 03:37:52;;;;;;;;;20.00;19.50;;;;;26.06;58.08;100535.19;5057192;28;45519;-48
2021/09/09 03:40:17;;;;;;;;;19.50;19.00;;;;;26.04;58.47;100530.00;5057227;28;45466;-47
2021/09/09 03:42:43;;;;;;;;;25.50;22.00;;;;;26.04;58.62;100529.16;5057623;28;45422;-48
2021/09/09 03:45:08;;;;;;;;;18.75;18.75;;;;;26.04;58.22;100534.47;5057396;28;46339;-48
2021/09/09 03:47:34;;;;;;;;;21.50;19.75;;;;;26.03;58.02;100527.47;5057085;28;45293;-46
2021/09/09 03:49:59;;;;;;;;;19.75;19.75;;;;;26.02;58.05;100528.44;5057481;28;45361;-48
2021/09/09 03:52:24;;;;;;;;;25.00;22.25;;;;;26.00;58.19;100530.38;5057417;28;45487;-49
2021/09/09 03:54:50;;;;;;;;;20.00;18.75;;;;;26.00;58.36;100525.94;5056996;28;45341;-47
2021/09/09 03:57:15;;;;;;;;;23.25;20.50;;;;;26.01;58.16;100532.06;5057009;28;45272;-48
2021/09/09 03:59:41;;;;;;;;;24.75;24.00;;;;;25.99;58.71;100526.03;5056945;28;45362;-46
2021/09/09 04:02:06;;;;;;;;;21.75;21.75;;;;;25.97;58.43;100536.81;5056243;28;45525;-49
2021/09/09 04:04:32;;;;;;;;;20.25;18.50;;;;;25.95;58.46;100532.59;5056793;28;46603;-46
2021/09/09 04:06:57;;;;;;;;;23.25;22.00;;;;;25.96;57.91;100542.25;5056793;28;45233;-46
2021/09/09 04:09:23;;;;;;;;;24.75;23.00;;;;;25.92;58.57;100531.88;5038830;28;45690;-48
2021/09/09 04:11:48;;;;;;;;;21.75;20.50;;;;;25.95;57.99;100525.47;5057064;28;45462;-50
2021/09/09 04:14:14;;;;;;;;;22.75;19.25;;;;;25.94;58.29;100531.72;5056298;28;46168;-49
2021/09/09 04:16:39;;;;;;;;;26.75;23.25;;;;;25.93;58.62;100532.69;5057052;28;45365;-49
2021/09/09 04:19:05;;;;;;;;;28.25;23.75;;;;;25.91;58.76;100530.19;5056757;28;45359;-52
2021/09/09 04:21:30;;;;;;;;;24.25;22.25;;;;;25.90;58.37;100530.31;5056920;28;45430;-49
2021/09/09 04:23:55;;;;;;;;;24.50;24.50;;;;;25.87;58.55;100522.59;5056520;28;46356;-48
2021/09/09 04:26:21;;;;;;;;;22.25;21.50;;;;;25.87;58.69;100527.91;5056649;28;45358;-47
2021/09/09 04:28:46;;;;;;;;;24.25;22.25;;;;;25.84;58.42;100526.38;5038612;28;45388;-47
2021/09/09 04:31:11;;;;;;;;;22.00;20.00;;;;;25.83;58.78;100523.81;5056909;28;45649;-48
2021/09/09 04:33:37;;;;;;;;;19.25;17.50;;;;;25.82;58.19;100519.47;5056718;28;46453;-49
2021/09/09 04:36:02;;;;;;;;;24.75;23.75;;;;;25.80;58.70;100511.66;5056545;28;45477;-49
2021/09/09 04:38:28;;;;;;;;;24.00;22.25;;;;;25.81;58.17;100509.81;5056484;28;45408;-47
2021/09/09 04:40:53;;;;;;;;;25.50;23.00;;;;;25.80;58.17;100514.31;5056701;28;45528;-47
2021/09/09 04:43:18;;;;;;;;;22.50;21.00;;;;;25.82;58.27;100520.34;5038267;28;47999;-48
2021/09/09 04:45:44;;;;;;;;;21.50;19.75;;;;;25.83;58.26;100503.44;5056357;28;45260;-50
2021/09/09 04:48:09;;;;;;;;;24.75;20.75;;;;;25.82;58.29;100501.75;5056689;28;45367;-47
2021/09/09 04:50:35;;;;;;;;;25.75;25.75;;;;;25.82;58.34;100508.84;5056681;28;45312;-47
2021/09/09 04:53:00;;;;;;;;;26.50;24.25;;;;;25.82;57.98;100503.56;5056090;28;46658;-53
2021/09/09 04:55:25;;;;;;;;;23.25;23.00;;;;;25.80;58.40;100506.34;5056150;28;45395;-48
2021/09/09 04:57:51;;;;;;;;;26.25;22.75;;;;;25.76;58.16;100508.41;5056302;28;45420;-48
2021/09/09 05:00:16;;;;;;;;;25.25;24.25;;;;;25.78;58.00;100510.94;5056406;28;45473;-49
2021/09/09 05:02:41;;;;;;;;;30.25;26.25;;;;;25.74;58.55;100510.34;5056316;28;46275;-48
2021/09/09 05:05:07;;;;;;;;;25.50;25.25;;;;;25.73;58.06;100507.84;5056192;28;45276;-50
2021/09/09 05:07:34;;;;;;;;;28.75;25.75;;;;;25.72;58.53;100506.16;5056181;28;45424;-52
2021/09/09 05:10:00;;;;;;;;;25.25;24.00;;;;;25.71;58.28;100510.59;5056321;28;45483;-47
2021/09/09 05:12:25;;;;;;;;;30.75;24.50;;;;;25.71;57.95;100507.13;5055926;28;46187;-47
2021/09/09 05:14:51;;;;;;;;;28.50;25.50;;;;;25.69;58.43;100506.41;5054627;28;45416;-50
2021/09/09 05:17:16;;;;;;;;;27.50;24.75;;;;;25.68;58.50;100507.38;5056084;28;45351;-47
2021/09/09 05:19:41;;;;;;;;;28.75;27.00;;;;;25.66;58.03;100506.63;5056328;28;45589;-48
2021/09/09 05:22:06;;;;;;;;;29.00;27.50;;;;;25.62;58.63;100506.91;5055631;28;45565;-54
2021/09/09 05:24:32;;;;;;;;;29.25;27.25;;;;;25.60;58.42;100513.28;5055593;28;49540;-55
2021/09/09 05:26:57;;;;;;;;;31.25;28.00;;;;;25.57;57.95;100514.41;5058593;28;45386;-50
2021/09/09 05:29:23;;;;;;;;;32.00;30.00;;;;;25.53;58.14;100515.59;5059433;28;45677;-55
2021/09/09 05:31:49;;;;;;;;;27.00;25.50;;;;;25.48;58.41;100515.16;5058099;28;45627;-49
2021/09/09 05:34:14;;;;;;;;;29.00;26.50;;;;;25.44;58.56;100519.00;5059285;28;45358;-53
2021/09/09 05:36:39;;;;;;;;;33.25;27.50;;;;;25.41;57.95;100522.78;5059640;28;45395;-51
2021/09/09 05:39:05;;;;;;;;;26.75;26.25;;;;;25.41;58.45;100525.44;5059431;28;45313;-51
2021/09/09 05:41:30;;;;;;;;;26.00;25.00;;;;;25.41;58.30;100524.59;5059059;28;46300;-50
2021/09/09 05:43:55;;;;;;;;;25.50;24.75;;;;;25.41;58.68;100522.78;5058975;28;45217;-50
2021/09/09 05:46:21;;;;;;;;;30.75;27.50;;;;;25.43;57.95;100539.41;5059160;28;45357;-50
2021/09/09 05:48:46;;;;;;;;;31.00;28.25;;;;;25.43;58.51;100542.06;5059297;28;45252;-51
2021/09/09 05:51:11;;;;;;;;;30.75;29.75;;;;;25.42;58.81;100555.44;5059179;28;45340;-47
2021/09/09 05:53:37;;;;;;;;;34.75;30.25;;;;;25.40;58.34;100554.72;5058930;28;45486;-50
2021/09/09 05:56:02;;;;;;;;;27.75;27.50;;;;;25.38;58.86;100565.44;5058884;28;45340;-52
2021/09/09 05:58:28;;;;;;;;;29.50;28.00;;;;;25.38;58.25;100567.25;5059060;28;45614;-49
2021/09/09 06:00:53;;;;;;;;;28.50;27.25;;;;;25.35;58.46;100562.19;5058471;28;46186;-50
2021/09/09 06:03:19;;;;;;;;;26.50;23.75;;;;;25.35;58.33;100567.50;5058775;28;45346;-51
2021/09/09 06:05:44;;;;;;;;;28.75;26.75;;;;;25.34;58.93;100573.75;5059032;28;45348;-50
2021/09/09 06:08:10;;;;;;;;;34.00;31.75;;;;;25.34;58.80;100571.09;5059035;28;45575;-50
2021/09/09 06:10:35;;;;;;;;;33.00;30.25;;;;;25.34;58.76;100573.75;5058689;28;46357;-51
2021/09/09 06:13:01;;;;;;;;;28.75;26.75;;;;;25.31;58.42;100577.50;5058736;28;45315;-52
2021/09/09 06:15:26;;;;;;;;;34.75;30.25;;;;;25.28;58.81;100583.06;5058839;28;45426;-49
2021/09/09 06:17:52;;;;;;;;;34.50;30.00;;;;;25.26;58.51;100571.72;5058872;28;45613;-49
2021/09/09 06:20:17;;;;;;;;;29.50;27.25;;;;;25.26;58.53;100580.53;5058380;28;46245;-50
2021/09/09 06:22:43;;;;;;;;;26.25;25.25;;;;;25.26;58.60;100580.53;5058921;28;45350;-47
2021/09/09 06:25:09;;;;;;;;;31.00;27.50;;;;;25.25;58.91;100581.50;5058639;28;45294;-48
2021/09/09 06:27:35;;;;;;;;;36.00;29.50;;;;;25.29;58.50;100582.94;5058855;28;45448;-49
2021/09/09 06:30:00;;;;;;;;;34.50;29.50;;;;;25.31;58.58;100585.47;5058386;28;46356;-50
2021/09/09 06:32:25;;;;;;;;;30.50;28.50;;;;;25.31;58.43;100586.28;5058385;28;45513;-50
2021/09/09 06:34:51;;;;;;;;;34.25;28.00;;;;;25.32;58.85;100587.97;5058407;28;45294;-51
2021/09/09 06:37:17;;;;;;;;;32.50;29.75;;;;;25.34;58.47;100587.03;5058807;28;45430;-48
2021/09/09 06:39:42;;;;;;;;;29.25;29.00;;;;;25.34;58.54;100587.03;5058383;28;47014;-48
2021/09/09 06:42:08;;;;;;;;;34.50;29.25;;;;;25.32;58.29;100590.63;5058277;28;45364;-48
2021/09/09 06:44:33;;;;;;;;;31.50;29.75;;;;;25.34;58.35;100593.19;5058350;28;45388;-48
2021/09/09 06:46:58;;;;;;;;;31.25;28.50;;;;;25.31;58.42;100596.91;5058557;28;45312;-49
2021/09/09 06:49:24;;;;;;;;;31.75;28.00;;;;;25.32;58.27;100601.25;5056663;28;45566;-56
2021/09/09 06:51:49;;;;;;;;;29.50;26.00;;;;;25.31;58.74;100607.50;5058062;28;45384;-50
2021/09/09 06:54:16;;;;;;;;;31.75;29.00;;;;;25.31;58.89;100612.00;5058429;28;45449;-49
2021/09/09 06:56:41;;;;;;;;;29.50;28.75;;;;;25.31;58.28;100614.66;5058200;28;45470;-47
2021/09/09 06:59:06;;;;;;;;;32.00;28.00;;;;;25.28;58.82;100605.13;5057757;28;45527;-47
2021/09/09 07:01:32;;;;;;;;;32.25;29.25;;;;;25.29;58.39;100611.25;5057993;28;45336;-47
2021/09/09 07:03:57;;;;;;;;;30.50;27.25;;;;;25.24;58.34;100614.28;5058043;28;45422;-50
2021/09/09 07:06:22;;;;;;;;;30.75;26.50;;;;;25.24;58.38;100613.47;5057986;28;45597;-45
2021/09/09 07:08:48;;;;;;;;;29.25;27.00;;;;;25.22;58.86;100610.91;5058029;28;46169;-47
2021/09/09 07:11:13;;;;;;;;;32.25;29.00;;;;;25.21;58.37;100605.72;5057727;28;45350;-46
2021/09/09 07:13:38;;;;;;;;;27.25;25.25;;;;;25.22;58.40;100608.25;5058254;28;45370;-49
2021/09/09 07:16:04;;;;;;;;;27.75;27.00;;;;;25.24;59.11;100608.16;5058198;28;45296;-49
2021/09/09 07:18:29;;;;;;;;;30.50;27.25;;;;;25.22;58.76;100602.94;5057672;28;45302;-48
2021/09/09 07:20:55;;;;;;;;;27.25;25.00;;;;;25.26;58.56;100607.06;5057548;28;45362;-47
2021/09/09 07:23:21;;;;;;;;;29.75;24.25;;;;;25.26;59.00;100607.06;5057687;28;45295;-53
2021/09/09 07:25:48;;;;;;;;;28.75;26.25;;;;;25.25;58.99;100604.50;5058159;28;45182;-48
2021/09/09 07:28:14;;;;;;;;;28.00;22.75;;;;;25.27;58.91;100614.06;5056230;28;47383;-49
2021/09/09 07:30:40;;;;;;;;;25.50;25.00;;;;;25.27;59.08;100613.19;5057578;28;45895;-47
2021/09/09 07:33:05;;;;;;;;;24.25;24.25;;;;;25.28;58.24;100613.09;5057575;28;45320;-54
2021/09/09 07:35:31;;;;;;;;;23.00;22.50;;;;;25.29;58.18;100620.09;5057634;28;45366;-54
2021/09/09 07:37:57;;;;;;;;;29.75;26.00;;;;;25.30;58.50;100619.09;5057309;28;45514;-51
2021/09/09 07:40:23;;;;;;;;;29.50;24.25;;;;;25.29;58.74;100622.72;5057370;28;45333;-50
2021/09/09 07:42:48;;;;;;;;;26.25;24.75;;;;;25.30;58.56;100621.75;5057704;28;45369;-47
2021/09/09 07:45:14;;;;;;;;;29.75;27.00;;;;;25.28;58.53;100609.56;5057659;28;45254;-49
2021/09/09 07:47:40;;;;;;;;;28.00;27.00;;;;;25.24;58.74;100608.16;5057179;28;45430;-50
2021/09/09 07:50:08;;;;;;;;;30.00;27.25;;;;;25.22;58.16;100612.72;5056464;28;45277;-50
2021/09/09 07:52:34;;;;;;;;;27.25;24.25;;;;;25.20;58.17;100607.53;5057307;28;45371;-47
2021/09/09 07:54:59;;;;;;;;;27.25;26.75;;;;;25.21;58.61;100614.53;5057430;28;45447;-55
2021/09/09 07:57:24;;;;;;;;;27.00;24.00;;;;;25.23;58.52;100617.91;5057071;28;45306;-48
2021/09/09 07:59:49;;;;;;;;;27.00;27.00;;;;;25.24;58.80;100624.91;5057147;28;45430;-49
2021/09/09 08:02:15;;;;;;;;;30.25;27.75;;;;;25.25;58.28;100623.06;5057171;28;45400;-48
2021/09/09 08:04:41;;;;;;;;;30.00;27.25;;;;;25.22;58.23;100615.38;5057292;28;45670;-48
2021/09/09 08:07:07;;;;;;;;;35.25;30.50;;;;;25.23;58.66;100611.75;5056966;28;46159;-54
2021/09/09 08:09:32;;;;;;;;;29.50;25.75;;;;;25.19;58.76;100608.47;5056872;28;45385;-48
2021/09/09 08:11:57;;;;;;;;;32.50;29.50;;;;;25.19;58.36;100603.19;5057020;28;45345;-50
2021/09/09 08:14:23;;;;;;;;;29.25;24.75;;;;;25.20;58.37;100612.81;5057195;28;45489;-49
2021/09/09 08:16:48;;;;;;;;;26.00;24.00;;;;;25.22;58.24;100621.50;5057036;28;46442;-51
2021/09/09 08:19:13;;;;;;;;;24.00;24.00;;;;;25.22;58.46;100626.00;5056682;28;45408;-51
2021/09/09 08:21:39;;;;;;;;;27.50;24.50;;;;;25.21;58.47;100622.47;5056855;28;45566;-51
2021/09/09 08:24:05;;;;;;;;;25.75;24.25;;;;;25.20;58.56;100620.78;5057060;28;45578;-49
2021/09/09 08:26:30;;;;;;;;;26.50;24.75;;;;;25.16;58.67;100624.66;5056767;28;46065;-52
2021/09/09 08:28:55;;;;;;;;;28.50;26.00;;;;;25.14;59.07;100624.75;5056468;28;45323;-49
2021/09/09 08:31:22;;;;;;;;;26.00;25.00;;;;;25.14;58.59;100631.88;5056976;28;45383;-50
2021/09/09 08:33:47;;;;;;;;;27.00;25.00;;;;;25.09;58.45;100632.25;5056803;28;45506;-51
2021/09/09 08:36:15;;;;;;;;;25.50;24.00;;;;;25.07;58.79;100628.88;5056347;28;45407;-52
2021/09/09 08:38:40;;;;;;;;;27.00;25.75;;;;;25.08;59.03;100622.59;5056347;28;45878;-47
2021/09/09 08:41:06;;;;;;;;;25.25;23.75;;;;;25.12;59.19;100634.66;5056571;28;45430;-51
2021/09/09 08:43:32;;;;;;;;;26.75;22.50;;;;;25.11;59.02;100629.47;5056873;28;45463;-53
2021/09/09 08:46:00;;;;;;;;;25.50;23.00;;;;;25.13;58.43;100635.50;5056339;28;46854;-51
2021/09/09 08:48:27;;;;;;;;;30.00;24.25;;;;;25.13;58.81;100646.09;5056302;28;45905;-52
2021/09/09 08:50:52;;;;;;;;;24.25;23.00;;;;;25.14;58.32;100639.84;5056782;28;45355;-54
2021/09/09 08:53:18;;;;;;;;;28.25;23.25;;;;;25.16;58.97;100652.00;5056761;28;45721;-54
2021/09/09 08:55:43;;;;;;;;;24.00;22.00;;;;;25.15;58.68;100650.31;5056221;28;46153;-51
2021/09/09 08:58:09;;;;;;;;;27.50;25.50;;;;;25.14;58.56;100650.44;5038267;28;45857;-52
2021/09/09 09:00:35;;;;;;;;;26.25;23.50;;;;;25.11;58.87;100640.06;5056881;28;45372;-53
2021/09/09 09:03:00;;;;;;;;;29.50;25.50;;;;;25.10;58.65;100649.00;5060098;28;45417;-54
2021/09/09 09:05:27;;;;;;;;;21.75;19.75;;;;;25.08;58.60;100646.47;5059753;28;45419;-50
2021/09/09 09:08:04;;;;;;;;;28.00;24.75;;;;;25.12;58.94;100650.59;5060146;28;45906;-51
2021/09/09 09:10:32;;;;;;;;;26.00;25.00;;;;;25.12;58.55;100645.28;5059826;28;45323;-52
2021/09/09 09:12:58;;;;;;;;;24.25;22.50;;;;;25.10;59.11;100651.66;5060004;28;45568;-53
2021/09/09 09:15:27;;;;;;;;;26.25;22.75;;;;;25.08;59.02;100650.94;5059862;28;45296;-52
2021/09/09 09:18:02;;;;;;;;;25.75;21.25;;;;;25.09;58.56;100652.59;5059818;28;45328;-53
2021/09/09 09:20:44;;;;;;;;;25.00;25.00;;;;;25.11;58.50;100654.19;5059869;28;45475;-51
2021/09/09 09:23:27;;;;;;;;;26.00;22.00;;;;;25.13;58.72;100648.75;5058602;28;45652;-49
2021/09/09 09:26:04;;;;;;;;;27.50;21.25;;;;;25.16;58.91;100648.53;5059598;28;46594;-57
2021/09/09 09:28:48;;;;;;;;;23.00;21.25;;;;;25.15;58.68;100646.84;5059278;28;45824;-54
2021/09/09 09:31:26;;;;;;;;;24.75;21.50;;;;;25.17;58.78;100644.91;5059539;28;45395;-53
2021/09/09 09:33:59;;;;;;;;;26.50;24.00;;;;;25.19;58.41;100648.25;5059837;28;45483;-54
2021/09/09 09:36:31;;;;;;;;;27.75;25.50;;;;;25.19;58.92;100650.91;5059429;28;46266;-53
2021/09/09 09:39:19;;;;;;;;;24.75;20.25;;;;;25.12;59.33;100649.72;5059197;28;45387;-53
2021/09/09 09:41:53;;;;;;;;;29.25;24.75;;;;;25.06;59.14;100647.56;5059402;28;45448;-57
2021/09/09 09:44:48;;;;;;;;;23.50;21.75;;;;;24.99;59.31;100657.78;5059556;28;45454;-55
2021/09/09 09:47:19;;;;;;;;;24.50;23.25;;;;;24.92;59.17;100652.13;5059200;28;46182;-54
2021/09/09 09:49:49;;;;;;;;;21.50;20.75;;;;;24.88;59.50;100652.47;5059072;28;45393;-56
2021/09/09 09:52:23;;;;;;;;;21.75;21.00;;;;;24.83;59.43;100652.84;5059259;28;45248;-53
2021/09/09 09:54:57;;;;;;;;;27.00;21.00;;;;;24.79;59.81;100646.06;5059275;28;45272;-52
2021/09/09 09:57:24;;;;;;;;;28.50;25.00;;;;;24.76;60.53;100641.00;5059167;28;46330;-56
2021/09/09 09:59:50;;;;;;;;;26.50;23.00;;;;;24.73;60.19;100642.09;5058725;28;45392;-57
2021/09/09 10:02:16;;;;;;;;;25.50;20.50;;;;;24.77;60.17;100650.63;5059067;28;45399;-59
2021/09/09 10:04:43;;;;;;;;;27.25;24.25;;;;;24.79;60.29;100654.03;5059125;28;45553;-55
2021/09/09 10:07:10;;;;;;;;;25.50;22.75;;;;;24.84;59.80;100650.06;5058721;28;46270;-56
2021/09/09 10:09:38;;;;;;;;;24.25;22.25;;;;;24.92;59.98;100652.13;5058715;28;45268;-55
2021/09/09 10:12:05;;;;;;;;;25.75;22.25;;;;;24.97;59.52;100649.13;5058376;28;45351;-56
2021/09/09 10:14:30;;;;;;;;;24.50;24.25;;;;;25.00;59.41;100654.19;5058890;28;45428;-49
2021/09/09 10:16:58;;;;;;;;;22.25;20.25;;;;;25.03;59.49;100647.78;5059024;28;45288;-55
2021/09/09 10:19:26;;;;;;;;;22.00;18.25;;;;;25.07;59.26;100644.78;5058896;28;45222;-55
2021/09/09 10:22:04;;;;;;;;;27.50;23.75;;;;;25.11;59.55;100640.06;5058602;28;45288;-56
2021/09/09 10:24:33;;;;;;;;;21.25;20.75;;;;;25.16;59.65;100643.22;5058858;28;45361;-53
2021/09/09 10:27:20;;;;;;;;;21.00;19.50;;;;;25.23;59.33;100655.03;5058440;28;47476;-53
2021/09/09 10:29:59;;;;;;;;;24.25;23.00;;;;;25.28;59.46;100646.72;5058460;28;45193;-53
2021/09/09 10:32:34;;;;;;;;;23.50;18.75;;;;;25.32;59.36;100643.69;5058809;28;45388;-53
2021/09/09 10:35:30;;;;;;;;;22.00;19.25;;;;;25.37;59.00;100639.84;5058651;28;45317;-56
2021/09/09 10:38:17;;;;;;;;;21.50;21.50;;;;;25.40;58.68;100643.13;5052270;28;45538;-50
2021/09/09 10:40:47;;;;;;;;;20.00;20.00;;;;;25.45;58.90;100642.75;5047478;28;45278;-56
2021/09/09 10:43:33;;;;;;;;;22.50;21.50;;;;;25.49;58.63;100644.22;5058472;28;45314;-53
2021/09/09 10:46:09;;;;;;;;;21.75;20.50;;;;;25.52;58.22;100637.81;5058728;28;45973;-52
2021/09/09 10:48:35;;;;;;;;;23.00;20.00;;;;;25.53;58.22;100645.63;5058045;28;46734;-57
2021/09/09 10:51:01;;;;;;;;;17.50;17.50;;;;;25.55;58.26;100638.41;5058153;28;45404;-50
2021/09/09 10:53:39;;;;;;;;;24.00;21.00;;;;;25.58;57.97;100640.81;5058530;28;45339;-49
2021/09/09 10:56:12;;;;;;;;;19.50;19.50;;;;;25.61;57.76;100639.72;5058578;28;45290;-51
2021/09/09 10:58:39;;;;;;;;;20.50;18.50;;;;;25.62;57.74;100639.63;5057599;28;46462;-57
2021/09/09 11:01:08;;;;;;;;;20.00;18.00;;;;;25.66;57.54;100634.03;5057927;28;45269;-52
2021/09/09 11:03:46;;;;;;;;;18.25;17.25;;;;;25.68;57.40;100630.31;5058017;28;45359;-52
2021/09/09 11:06:23;;;;;;;;;17.75;16.00;;;;;25.70;56.91;100633.66;5057989;28;45358;-53
2021/09/09 11:08:53;;;;;;;;;20.25;19.00;;;;;25.72;56.69;100631.72;5057853;28;46024;-50